createdAt,value
2018-05-13T00:01:18.653Z,4.4
2018-05-13T00:04:18.540Z,4.4
2018-05-13T00:07:18.598Z,4.4
2018-05-13T00:10:18.657Z,4.4
2018-05-13T00:13:18.549Z,4.4
2018-05-13T00:16:18.564Z,4.4
2018-05-13T00:19:18.707Z,4.4
2018-05-13T00:22:18.517Z,4.4
2018-05-13T00:25:18.617Z,4.4
2018-05-13T00:28:18.653Z,4.4
2018-05-13T00:31:18.584Z,4.4
2018-05-13T00:34:18.677Z,4.4
2018-05-13T00:37:18.774Z,4.4
2018-05-13T00:40:18.621Z,4.4
2018-05-13T00:43:18.660Z,4.4
2018-05-13T00:46:18.663Z,4.4
2018-05-13T00:49:18.576Z,4.4
2018-05-13T00:52:18.741Z,4.4
2018-05-13T00:55:18.514Z,4.4
2018-05-13T00:58:18.718Z,4.4
2018-05-13T01:01:18.640Z,4.3
2018-05-13T01:04:18.586Z,4.3
2018-05-13T01:07:18.575Z,4.3
2018-05-13T01:10:18.764Z,4.3
2018-05-13T01:13:18.868Z,4.3
2018-05-13T01:16:18.524Z,4.3
2018-05-13T01:19:18.869Z,4.3
2018-05-13T01:22:18.669Z,4.3
2018-05-13T01:25:18.678Z,4.3
2018-05-13T01:28:18.619Z,4.3
2018-05-13T01:31:18.533Z,4.3
2018-05-13T01:34:18.531Z,4.3
2018-05-13T01:37:18.761Z,4.3
2018-05-13T01:40:18.648Z,4.3
2018-05-13T01:43:18.692Z,4.3
2018-05-13T01:46:18.709Z,4.3
2018-05-13T01:49:18.834Z,4.3
2018-05-13T01:52:18.662Z,4.3
2018-05-13T01:55:18.559Z,4.3
2018-05-13T01:58:18.547Z,4.3
2018-05-13T02:01:18.564Z,4.1
2018-05-13T02:04:18.794Z,4.1
2018-05-13T02:07:18.690Z,4.1
2018-05-13T02:10:18.667Z,4.1
2018-05-13T02:13:18.524Z,4.1
2018-05-13T02:16:18.526Z,4.1
2018-05-13T02:19:18.629Z,4.1
2018-05-13T02:22:18.610Z,4.1
2018-05-13T02:25:18.801Z,4.1
2018-05-13T02:28:18.634Z,4.1
2018-05-13T02:31:18.538Z,4.1
2018-05-13T02:34:18.532Z,4.1
2018-05-13T02:37:18.658Z,4.1
2018-05-13T02:40:18.525Z,4.1
2018-05-13T02:43:18.626Z,4.1
2018-05-13T02:46:18.532Z,4.1
2018-05-13T02:49:18.826Z,4.1
2018-05-13T02:52:18.596Z,4.1
2018-05-13T02:55:18.636Z,4.1
2018-05-13T02:58:18.737Z,4.1
2018-05-13T03:01:18.704Z,4
2018-05-13T03:04:18.459Z,4
2018-05-13T03:07:18.699Z,4
2018-05-13T03:10:18.898Z,4
2018-05-13T03:13:18.676Z,4
2018-05-13T03:16:18.714Z,4
2018-05-13T03:19:18.921Z,4
2018-05-13T03:22:18.678Z,4
2018-05-13T03:25:18.617Z,4
2018-05-13T03:28:18.708Z,4
2018-05-13T03:31:18.609Z,4
2018-05-13T03:34:18.680Z,4
2018-05-13T03:37:18.656Z,4
2018-05-13T03:40:18.675Z,4
2018-05-13T03:43:18.469Z,4
2018-05-13T03:46:18.687Z,4
2018-05-13T03:49:18.545Z,4
2018-05-13T03:52:18.780Z,4
2018-05-13T03:55:18.640Z,4
2018-05-13T03:58:18.612Z,4
2018-05-13T04:01:18.527Z,3.9
2018-05-13T04:04:18.900Z,3.9
2018-05-13T04:07:19.540Z,3.9
2018-05-13T04:10:18.626Z,3.9
2018-05-13T04:13:18.502Z,3.9
2018-05-13T04:16:18.818Z,3.9
2018-05-13T04:19:18.507Z,3.9
2018-05-13T04:22:18.451Z,3.9
2018-05-13T04:25:19.067Z,3.9
2018-05-13T04:28:18.572Z,3.9
2018-05-13T04:31:18.621Z,3.9
2018-05-13T04:34:18.784Z,3.9
2018-05-13T04:37:18.463Z,3.9
2018-05-13T04:40:18.591Z,3.9
2018-05-13T04:43:18.590Z,3.9
2018-05-13T04:46:18.378Z,3.9
2018-05-13T04:49:18.852Z,3.9
2018-05-13T04:52:18.648Z,3.9
2018-05-13T04:55:18.470Z,3.9
2018-05-13T04:58:18.610Z,3.9
2018-05-13T05:01:18.635Z,3.8
2018-05-13T05:04:18.381Z,3.8
2018-05-13T05:07:18.666Z,3.8
2018-05-13T05:10:18.593Z,3.8
2018-05-13T05:13:28.514Z,3.8
2018-05-13T05:16:18.456Z,3.8
2018-05-13T05:19:18.648Z,3.8
2018-05-13T05:22:18.618Z,3.8
2018-05-13T05:25:18.604Z,3.8
2018-05-13T05:28:18.557Z,3.8
2018-05-13T05:31:18.761Z,3.8
2018-05-13T05:34:18.521Z,3.8
2018-05-13T05:37:18.482Z,3.8
2018-05-13T05:40:18.470Z,3.8
2018-05-13T05:43:18.563Z,3.8
2018-05-13T05:46:18.616Z,3.8
2018-05-13T05:49:18.534Z,3.8
2018-05-13T05:52:18.679Z,3.8
2018-05-13T05:55:18.552Z,3.8
2018-05-13T05:58:18.532Z,3.8
2018-05-13T06:01:18.584Z,3.7
2018-05-13T06:04:18.349Z,3.7
2018-05-13T06:07:18.624Z,3.7
2018-05-13T06:10:18.475Z,3.7
2018-05-13T06:13:18.789Z,3.7
2018-05-13T06:16:18.452Z,3.7
2018-05-13T06:19:18.504Z,3.7
2018-05-13T06:22:18.554Z,3.7
2018-05-13T06:25:19.690Z,3.7
2018-05-13T06:28:18.653Z,3.7
2018-05-13T06:31:18.590Z,3.7
2018-05-13T06:34:18.773Z,3.7
2018-05-13T06:37:18.710Z,3.7
2018-05-13T06:40:19.274Z,3.7
2018-05-13T06:43:18.477Z,3.7
2018-05-13T06:46:18.471Z,3.7
2018-05-13T06:49:18.564Z,3.7
2018-05-13T06:52:18.614Z,3.7
2018-05-13T06:55:18.741Z,3.7
2018-05-13T06:58:18.626Z,3.7
2018-05-13T07:01:18.456Z,3.7
2018-05-13T07:04:18.644Z,3.7
2018-05-13T07:07:18.577Z,3.7
2018-05-13T07:10:19.480Z,3.7
2018-05-13T07:13:18.484Z,3.7
2018-05-13T07:16:18.655Z,3.7
2018-05-13T07:19:18.597Z,3.7
2018-05-13T07:22:18.517Z,3.7
2018-05-13T07:25:18.518Z,3.7
2018-05-13T07:28:18.492Z,3.7
2018-05-13T07:31:18.745Z,3.7
2018-05-13T07:34:18.579Z,3.7
2018-05-13T07:37:18.612Z,3.7
2018-05-13T07:40:18.637Z,3.7
2018-05-13T07:43:19.360Z,3.7
2018-05-13T07:46:18.773Z,3.7
2018-05-13T07:49:18.551Z,3.7
2018-05-13T07:52:18.639Z,3.7
2018-05-13T07:55:18.437Z,3.7
2018-05-13T07:58:18.437Z,3.7
2018-05-13T08:01:18.773Z,3.6
2018-05-13T08:04:18.475Z,3.6
2018-05-13T08:07:18.540Z,3.6
2018-05-13T08:10:18.642Z,3.6
2018-05-13T08:13:18.430Z,3.6
2018-05-13T08:16:18.453Z,3.6
2018-05-13T08:19:18.371Z,3.6
2018-05-13T08:22:18.575Z,3.6
2018-05-13T08:25:18.472Z,3.6
2018-05-13T08:28:18.535Z,3.6
2018-05-13T08:31:18.591Z,3.6
2018-05-13T08:34:18.682Z,3.6
2018-05-13T08:37:18.567Z,3.6
2018-05-13T08:40:18.533Z,3.6
2018-05-13T08:43:18.416Z,3.6
2018-05-13T08:46:18.484Z,3.6
2018-05-13T08:49:18.409Z,3.6
2018-05-13T08:52:18.468Z,3.6
2018-05-13T08:55:18.643Z,3.6
2018-05-13T08:58:18.627Z,3.6
2018-05-13T09:01:18.477Z,3.5
2018-05-13T09:04:18.555Z,3.5
2018-05-13T09:07:18.718Z,3.5
2018-05-13T09:10:18.455Z,3.5
2018-05-13T09:13:18.641Z,3.5
2018-05-13T09:16:18.501Z,3.5
2018-05-13T09:19:18.349Z,3.5
2018-05-13T09:22:18.389Z,3.5
2018-05-13T09:25:18.509Z,3.5
2018-05-13T09:28:18.504Z,3.5
2018-05-13T09:31:18.454Z,3.5
2018-05-13T09:34:18.549Z,3.5
2018-05-13T09:37:18.524Z,3.5
2018-05-13T09:40:18.564Z,3.5
2018-05-13T09:43:18.712Z,3.5
2018-05-13T09:46:18.781Z,3.5
2018-05-13T09:49:18.729Z,3.5
2018-05-13T09:52:18.694Z,3.5
2018-05-13T09:55:18.923Z,3.5
2018-05-13T09:58:18.684Z,3.5
2018-05-13T10:01:18.732Z,3.6
2018-05-13T10:04:18.792Z,3.6
2018-05-13T10:07:18.382Z,3.6
2018-05-13T10:10:18.664Z,3.6
2018-05-13T10:13:18.897Z,3.6
2018-05-13T10:16:18.301Z,3.6
2018-05-13T10:19:18.561Z,3.6
2018-05-13T10:22:18.631Z,3.6
2018-05-13T10:25:18.459Z,3.6
2018-05-13T10:28:18.697Z,3.6
2018-05-13T10:31:18.536Z,3.6
2018-05-13T10:34:18.369Z,3.6
2018-05-13T10:37:18.537Z,3.6
2018-05-13T10:40:18.595Z,3.6
2018-05-13T10:43:18.364Z,3.6
2018-05-13T10:46:18.420Z,3.6
2018-05-13T10:49:18.320Z,3.6
2018-05-13T10:52:18.982Z,3.6
2018-05-13T10:55:18.438Z,3.6
2018-05-13T10:58:18.383Z,3.6
2018-05-13T11:01:18.468Z,3.6
2018-05-13T11:04:18.416Z,3.6
2018-05-13T11:07:18.451Z,3.6
2018-05-13T11:10:19.483Z,3.6
2018-05-13T11:13:18.477Z,3.6
2018-05-13T11:16:18.604Z,3.6
2018-05-13T11:19:18.505Z,3.6
2018-05-13T11:22:18.404Z,3.6
2018-05-13T11:25:18.436Z,3.6
2018-05-13T11:28:18.502Z,3.6
2018-05-13T11:31:18.491Z,3.6
2018-05-13T11:34:18.358Z,3.6
2018-05-13T11:37:18.536Z,3.6
2018-05-13T11:40:18.442Z,3.6
2018-05-13T11:43:18.428Z,3.6
2018-05-13T11:46:18.407Z,3.6
2018-05-13T11:49:18.572Z,3.6
2018-05-13T11:52:18.609Z,3.6
2018-05-13T11:55:18.374Z,3.6
2018-05-13T11:58:18.554Z,3.6
2018-05-13T12:01:18.424Z,3.7
2018-05-13T12:04:18.377Z,3.7
2018-05-13T12:07:18.341Z,3.7
2018-05-13T12:10:18.822Z,3.7
2018-05-13T12:13:18.412Z,3.7
2018-05-13T12:16:18.553Z,3.7
2018-05-13T12:19:18.360Z,3.7
2018-05-13T12:22:18.426Z,3.7
2018-05-13T12:25:18.329Z,3.7
2018-05-13T12:28:18.501Z,3.7
2018-05-13T12:31:18.481Z,3.7
2018-05-13T12:34:18.244Z,3.7
2018-05-13T12:37:18.441Z,3.7
2018-05-13T12:40:18.579Z,3.7
2018-05-13T12:43:18.252Z,3.7
2018-05-13T12:46:18.480Z,3.7
2018-05-13T12:49:18.482Z,3.7
2018-05-13T12:52:18.439Z,3.7
2018-05-13T12:55:18.332Z,3.7
2018-05-13T12:58:19.197Z,3.7
2018-05-13T13:01:18.500Z,3.8
2018-05-13T13:04:18.693Z,3.8
2018-05-13T13:07:18.627Z,3.8
2018-05-13T13:10:18.444Z,3.8
2018-05-13T13:13:18.600Z,3.8
2018-05-13T13:16:18.363Z,3.8
2018-05-13T13:19:18.535Z,3.8
2018-05-13T13:22:18.628Z,3.8
2018-05-13T13:25:18.601Z,3.8
2018-05-13T13:28:18.551Z,3.8
2018-05-13T13:31:18.425Z,3.8
2018-05-13T13:34:18.357Z,3.8
2018-05-13T13:37:18.568Z,3.8
2018-05-13T13:40:18.293Z,3.8
2018-05-13T13:43:18.260Z,3.8
2018-05-13T13:46:18.361Z,3.8
2018-05-13T13:49:18.458Z,3.8
2018-05-13T13:52:18.491Z,3.8
2018-05-13T13:55:18.528Z,3.8
2018-05-13T13:58:18.500Z,3.8
2018-05-13T14:01:18.653Z,3.8
2018-05-13T14:04:18.459Z,3.8
2018-05-13T14:07:18.526Z,3.8
2018-05-13T14:10:18.330Z,3.8
2018-05-13T14:13:18.423Z,3.8
2018-05-13T14:16:18.357Z,3.8
2018-05-13T14:19:18.581Z,3.8
2018-05-13T14:22:18.318Z,3.8
2018-05-13T14:25:18.496Z,3.8
2018-05-13T14:28:18.517Z,3.8
2018-05-13T14:31:18.270Z,3.8
2018-05-13T14:34:18.343Z,3.8
2018-05-13T14:37:18.347Z,3.8
2018-05-13T14:40:18.519Z,3.8
2018-05-13T14:43:18.451Z,3.8
2018-05-13T14:46:18.299Z,3.8
2018-05-13T14:49:18.247Z,3.8
2018-05-13T14:52:18.410Z,3.8
2018-05-13T14:55:18.492Z,3.8
2018-05-13T16:02:55.243Z,9.8
2018-05-13T16:05:55.179Z,9.8
2018-05-13T16:08:55.309Z,9.8
2018-05-13T16:11:55.390Z,9.8
2018-05-13T16:14:55.341Z,9.8
2018-05-13T16:17:55.289Z,9.8
2018-05-13T16:20:55.382Z,9.8
2018-05-13T16:23:55.314Z,9.8
2018-05-13T16:26:55.397Z,9.8
2018-05-13T16:29:55.487Z,9.8
2018-05-13T16:32:55.416Z,9.8
2018-05-13T16:35:55.444Z,9.8
2018-05-13T16:38:55.336Z,9.8
2018-05-13T16:41:55.428Z,9.8
2018-05-13T16:44:55.362Z,9.8
2018-05-13T16:47:55.464Z,9.8
2018-05-13T16:50:55.049Z,9.8
2018-05-13T16:53:55.110Z,9.8
2018-05-13T16:56:55.506Z,9.8
2018-05-13T16:59:55.513Z,9.8
2018-05-13T17:02:55.540Z,9.6
2018-05-13T17:05:55.533Z,9.6
2018-05-13T17:08:55.040Z,9.6
2018-05-13T17:11:55.107Z,9.6
2018-05-13T17:14:55.403Z,9.6
2018-05-13T17:17:55.021Z,9.6
2018-05-13T17:20:55.214Z,9.6
2018-05-13T17:23:55.122Z,9.6
2018-05-13T17:26:55.201Z,9.6
2018-05-13T17:29:56.825Z,9.6
2018-05-13T17:32:55.111Z,9.6
2018-05-13T18:00:19.405Z,7.1
2018-05-13T18:03:21.845Z,7.1
2018-05-13T18:06:19.410Z,7.1
2018-05-13T18:09:19.282Z,7.1
2018-05-13T18:12:19.515Z,7.1
2018-05-13T18:15:19.344Z,7.1
2018-05-13T18:18:19.960Z,7.1
2018-05-13T18:21:19.450Z,7.1
2018-05-13T18:24:19.547Z,7.1
2018-05-13T18:27:19.357Z,7.1
2018-05-13T18:30:19.495Z,7.1
2018-05-13T18:33:19.517Z,7.1
2018-05-13T18:36:19.537Z,7.1
2018-05-13T18:39:20.408Z,7.1
2018-05-13T18:42:19.288Z,7.1
2018-05-13T18:45:19.446Z,7.1
2018-05-13T18:48:19.567Z,7.1
2018-05-13T18:51:19.369Z,7.1
2018-05-13T18:54:19.513Z,7.1
2018-05-13T18:57:19.544Z,7.1
2018-05-13T19:00:19.469Z,6.5
2018-05-13T19:03:19.420Z,6.5
2018-05-13T19:06:19.381Z,6.5
2018-05-13T19:09:19.374Z,6.5
2018-05-13T19:12:20.606Z,6.5
2018-05-13T19:15:19.455Z,6.5
2018-05-13T19:18:19.475Z,6.5
2018-05-13T19:21:19.520Z,6.5
2018-05-13T19:24:19.656Z,6.5
2018-05-13T19:27:19.491Z,6.5
2018-05-13T19:30:19.557Z,6.5
2018-05-13T19:33:19.668Z,6.5
2018-05-13T19:36:19.591Z,6.5
2018-05-13T19:39:19.592Z,6.5
2018-05-13T19:42:19.627Z,6.5
2018-05-13T19:45:19.442Z,6.5
2018-05-13T19:48:19.344Z,6.5
2018-05-13T19:51:19.380Z,6.5
2018-05-13T19:54:19.308Z,6.5
2018-05-13T19:57:19.500Z,6.5
2018-05-13T20:00:19.648Z,6.3
2018-05-13T20:03:22.816Z,6.3
2018-05-13T20:06:19.303Z,6.3
2018-05-13T20:09:20.386Z,6.3
2018-05-13T20:12:19.642Z,6.3
2018-05-13T20:15:19.337Z,6.3
2018-05-13T20:18:19.420Z,6.3
2018-05-13T20:21:19.480Z,6.3
2018-05-13T20:24:19.590Z,6.3
2018-05-13T20:27:19.375Z,6.3
2018-05-13T20:30:19.539Z,6.3
2018-05-13T20:33:20.002Z,6.3
2018-05-13T20:36:19.242Z,6.3
2018-05-13T20:39:19.417Z,6.3
2018-05-13T20:42:19.577Z,6.3
2018-05-13T20:45:19.369Z,6.3
2018-05-13T20:48:19.372Z,6.3
2018-05-13T20:51:20.856Z,6.3
2018-05-13T20:54:19.570Z,6.3
2018-05-13T20:57:19.325Z,6.3
2018-05-13T21:00:19.644Z,6.1
2018-05-13T21:03:19.581Z,6.1
2018-05-13T21:06:19.625Z,6.1
2018-05-13T21:09:19.663Z,6.1
2018-05-13T21:12:19.457Z,6.1
2018-05-13T21:15:43.388Z,6.1
2018-05-13T21:18:19.493Z,6.1
2018-05-13T21:21:19.434Z,6.1
2018-05-13T21:24:19.379Z,6.1
2018-05-13T21:27:19.521Z,6.1
2018-05-13T21:30:20.464Z,6.1
2018-05-13T21:33:19.535Z,6.1
2018-05-13T21:36:19.387Z,6.1
2018-05-13T21:39:19.534Z,6.1
2018-05-13T21:42:19.486Z,6.1
2018-05-13T21:45:19.314Z,6.1
2018-05-13T21:48:19.434Z,6.1
2018-05-13T21:51:19.386Z,6.1
2018-05-13T21:54:19.450Z,6.1
2018-05-13T21:57:19.380Z,6.1
2018-05-13T22:00:19.492Z,5.7
2018-05-13T22:03:19.436Z,5.7
2018-05-13T22:06:19.385Z,5.7
2018-05-13T22:09:19.313Z,5.7
2018-05-13T22:12:19.564Z,5.7
2018-05-13T22:15:19.521Z,5.7
2018-05-13T22:18:19.437Z,5.7
2018-05-13T22:21:19.261Z,5.7
2018-05-13T22:24:19.451Z,5.7
2018-05-13T22:27:19.323Z,5.7
2018-05-13T22:30:19.413Z,5.7
2018-05-13T22:33:19.437Z,5.7
2018-05-13T22:36:19.592Z,5.7
2018-05-13T22:39:19.217Z,5.7
2018-05-13T22:42:19.202Z,5.7
2018-05-13T22:45:19.423Z,5.7
2018-05-13T22:48:19.819Z,5.7
2018-05-13T22:51:19.470Z,5.7
2018-05-13T22:54:19.559Z,5.7
2018-05-13T22:57:19.587Z,5.7
2018-05-13T23:00:19.558Z,5.3
2018-05-13T23:03:19.367Z,5.3
2018-05-13T23:06:19.419Z,5.3
2018-05-13T23:09:19.436Z,5.3
2018-05-13T23:12:19.334Z,5.3
2018-05-13T23:15:19.440Z,5.3
2018-05-13T23:18:19.444Z,5.3
2018-05-13T23:21:19.619Z,5.3
2018-05-13T23:24:19.443Z,5.3
2018-05-13T23:27:19.520Z,5.3
2018-05-13T23:30:19.322Z,5.3
2018-05-13T23:33:19.246Z,5.3
2018-05-13T23:36:19.424Z,5.3
2018-05-13T23:39:19.271Z,5.3
2018-05-13T23:42:19.357Z,5.3
2018-05-13T23:45:19.482Z,5.3
2018-05-13T23:48:19.352Z,5.3
2018-05-13T23:51:19.275Z,5.3
2018-05-13T23:54:19.441Z,5.3
2018-05-13T23:57:19.450Z,5.3
